TimeEST,TemperatureF,Dew PointF,Humidity,Sea Level PressureIn,VisibilityMPH,Wind Direction,Wind SpeedMPH,Gust SpeedMPH,PrecipitationIn,Events,Conditions,WindDirDegrees,DateUTC
12:51 AM,34.0,27.0,75,30.27,10.0,Calm,Calm,-,N/A,,Clear,0,2013-01-09 05:51:00
1:51 AM,34.0,27.0,75,30.28,10.0,Calm,Calm,-,N/A,,Clear,0,2013-01-09 06:51:00
2:51 AM,33.1,26.1,75,30.28,10.0,Calm,Calm,-,N/A,,Clear,0,2013-01-09 07:51:00
3:51 AM,34.0,27.0,75,30.29,10.0,South,3.5,-,N/A,,Partly Cloudy,190,2013-01-09 08:51:00
4:51 AM,39.9,30.9,70,30.28,10.0,South,4.6,-,N/A,,Partly Cloudy,190,2013-01-09 09:51:00
5:51 AM,41.0,30.9,67,30.29,10.0,South,5.8,-,N/A,,Overcast,190,2013-01-09 10:51:00
6:51 AM,43.0,32.0,65,30.31,10.0,South,3.5,-,N/A,,Overcast,190,2013-01-09 11:51:00
7:51 AM,45.0,33.1,63,30.32,10.0,South,3.5,-,N/A,,Overcast,190,2013-01-09 12:51:00
8:51 AM,46.4,33.8,62,30.34,10.0,South,5.8,-,N/A,,Overcast,190,2013-01-09 13:51:00
9:51 AM,46.9,35.1,63,30.38,10.0,SW,3.5,-,N/A,,Overcast,220,2013-01-09 14:51:00
10:51 AM,48.0,39.0,71,30.41,10.0,SSW,4.6,-,0.00,Rain,Light Rain,210,2013-01-09 15:51:00
11:51 AM,46.4,42.8,87,30.38,4.0,SSW,4.6,-,N/A,Rain,Light Rain,210,2013-01-09 16:51:00
12:51 PM,48.0,45.0,89,30.37,5.0,South,3.5,-,0.04,Rain,Light Rain,180,2013-01-09 17:51:00
1:51 PM,48.9,46.0,90,30.35,10.0,SSW,5.8,-,0.01,,Scattered Clouds,210,2013-01-09 18:51:00
2:51 PM,48.9,46.9,93,30.38,10.0,SSW,5.8,-,N/A,,Scattered Clouds,210,2013-01-09 19:51:00
3:43 PM,51.8,48.2,88,30.36,10.0,SSW,5.8,-,N/A,,Mostly Cloudy,210,2013-01-09 20:43:00
3:51 PM,51.1,46.9,86,30.38,10.0,SSW,5.8,-,N/A,,Mostly Cloudy,210,2013-01-09 20:51:00
4:51 PM,51.1,46.9,86,30.40,10.0,WSW,5.8,-,N/A,,Overcast,250,2013-01-09 21:51:00
5:51 PM,48.9,45.0,86,30.42,10.0,WSW,3.5,-,N/A,,Clear,240,2013-01-09 22:51:00
6:51 PM,48.2,46.4,93,30.43,9.0,Calm,Calm,-,N/A,,Clear,0,2013-01-09 23:51:00
7:51 PM,46.9,45.0,93,30.46,8.0,Calm,Calm,-,N/A,,Clear,0,2013-01-10 00:51:00
8:51 PM,44.1,43.0,96,30.49,5.0,SSW,3.5,-,N/A,,Clear,210,2013-01-10 01:51:00
9:43 PM,42.8,41.0,93,30.49,5.0,Calm,Calm,-,N/A,,Clear,0,2013-01-10 02:43:00
9:51 PM,41.0,39.9,96,30.51,5.0,Calm,Calm,-,N/A,,Clear,0,2013-01-10 02:51:00
10:51 PM,39.0,37.9,96,30.51,5.0,East,3.5,-,N/A,,Clear,90,2013-01-10 03:51:00
11:28 PM,39.2,37.4,93,30.51,1.0,Calm,Calm,-,N/A,,Mist,0,2013-01-10 04:28:00
11:37 PM,37.4,37.4,100,30.51,1.0,Calm,Calm,-,N/A,,Mist,0,2013-01-10 04:37:00
11:44 PM,37.4,37.4,100,30.51,0.2,Calm,Calm,-,N/A,Fog,Fog,0,2013-01-10 04:44:00
11:51 PM,37.9,37.0,97,30.52,0.2,Calm,Calm,-,N/A,Fog,Fog,0,2013-01-10 04:51:00